sensor_id;sensor_type;location;lat;lon;timestamp;P1;durP1;ratioP1;P2;durP2;ratioP2
52102;SDS011;38101;53.126;6.878;2023-02-08T00:01:19;21.00;;;15.48;;
52102;SDS011;38101;53.126;6.878;2023-02-08T00:03:48;21.48;;;15.45;;
52102;SDS011;38101;53.126;6.878;2023-02-08T00:06:14;23.40;;;16.52;;
52102;SDS011;38101;53.126;6.878;2023-02-08T00:08:39;22.92;;;16.23;;
52102;SDS011;38101;53.126;6.878;2023-02-08T00:11:06;23.73;;;15.32;;
52102;SDS011;38101;53.126;6.878;2023-02-08T00:13:34;23.17;;;16.02;;
52102;SDS011;38101;53.126;6.878;2023-02-08T00:16:01;21.48;;;15.18;;
52102;SDS011;38101;53.126;6.878;2023-02-08T00:18:27;23.33;;;15.82;;
52102;SDS011;38101;53.126;6.878;2023-02-08T00:20:54;24.45;;;16.77;;
52102;SDS011;38101;53.126;6.878;2023-02-08T00:23:21;24.27;;;16.27;;
52102;SDS011;38101;53.126;6.878;2023-02-08T00:25:48;22.23;;;16.30;;
52102;SDS011;38101;53.126;6.878;2023-02-08T00:28:14;20.77;;;15.73;;
52102;SDS011;38101;53.126;6.878;2023-02-08T00:30:42;21.60;;;15.25;;
52102;SDS011;38101;53.126;6.878;2023-02-08T00:33:08;23.73;;;15.43;;
52102;SDS011;38101;53.126;6.878;2023-02-08T00:35:34;23.58;;;16.23;;
52102;SDS011;38101;53.126;6.878;2023-02-08T00:38:00;21.92;;;15.38;;
52102;SDS011;38101;53.126;6.878;2023-02-08T00:40:26;20.23;;;14.95;;
52102;SDS011;38101;53.126;6.878;2023-02-08T00:42:52;21.88;;;15.07;;
52102;SDS011;38101;53.126;6.878;2023-02-08T00:45:18;18.92;;;14.48;;
52102;SDS011;38101;53.126;6.878;2023-02-08T00:47:44;21.73;;;15.63;;
52102;SDS011;38101;53.126;6.878;2023-02-08T00:50:10;22.05;;;15.68;;
52102;SDS011;38101;53.126;6.878;2023-02-08T00:52:36;22.13;;;15.75;;
52102;SDS011;38101;53.126;6.878;2023-02-08T00:55:02;21.00;;;15.73;;
52102;SDS011;38101;53.126;6.878;2023-02-08T00:57:28;19.50;;;15.05;;
52102;SDS011;38101;53.126;6.878;2023-02-08T00:59:56;24.45;;;15.45;;
52102;SDS011;38101;53.126;6.878;2023-02-08T01:02:22;20.70;;;14.98;;
52102;SDS011;38101;53.126;6.878;2023-02-08T01:04:48;22.40;;;15.30;;
52102;SDS011;38101;53.126;6.878;2023-02-08T01:07:13;23.23;;;15.48;;
52102;SDS011;38101;53.126;6.878;2023-02-08T01:09:39;21.02;;;16.08;;
52102;SDS011;38101;53.126;6.878;2023-02-08T01:12:05;21.40;;;15.27;;
52102;SDS011;38101;53.126;6.878;2023-02-08T01:14:31;21.38;;;15.45;;
52102;SDS011;38101;53.126;6.878;2023-02-08T01:16:56;20.52;;;15.05;;
52102;SDS011;38101;53.126;6.878;2023-02-08T01:19:22;22.52;;;15.57;;
52102;SDS011;38101;53.126;6.878;2023-02-08T01:21:48;22.38;;;15.15;;
52102;SDS011;38101;53.126;6.878;2023-02-08T01:24:14;19.98;;;14.60;;
52102;SDS011;38101;53.126;6.878;2023-02-08T01:26:40;18.92;;;14.52;;
52102;SDS011;38101;53.126;6.878;2023-02-08T01:29:05;23.35;;;15.75;;
52102;SDS011;38101;53.126;6.878;2023-02-08T01:31:36;23.17;;;14.77;;
52102;SDS011;38101;53.126;6.878;2023-02-08T01:34:03;21.15;;;14.75;;
52102;SDS011;38101;53.126;6.878;2023-02-08T01:36:30;23.17;;;15.48;;
52102;SDS011;38101;53.126;6.878;2023-02-08T01:38:57;22.77;;;15.63;;
52102;SDS011;38101;53.126;6.878;2023-02-08T01:41:25;22.02;;;15.60;;
52102;SDS011;38101;53.126;6.878;2023-02-08T01:44:00;19.27;;;14.00;;
52102;SDS011;38101;53.126;6.878;2023-02-08T01:46:32;20.15;;;14.00;;
52102;SDS011;38101;53.126;6.878;2023-02-08T01:49:10;21.38;;;14.18;;
52102;SDS011;38101;53.126;6.878;2023-02-08T01:51:44;19.58;;;14.10;;
52102;SDS011;38101;53.126;6.878;2023-02-08T01:54:17;22.13;;;14.60;;
52102;SDS011;38101;53.126;6.878;2023-02-08T01:56:46;20.90;;;14.20;;
52102;SDS011;38101;53.126;6.878;2023-02-08T01:59:16;22.35;;;14.70;;
52102;SDS011;38101;53.126;6.878;2023-02-08T02:01:45;20.35;;;14.75;;
52102;SDS011;38101;53.126;6.878;2023-02-08T02:04:13;19.33;;;14.73;;
52102;SDS011;38101;53.126;6.878;2023-02-08T02:06:41;20.35;;;14.43;;
52102;SDS011;38101;53.126;6.878;2023-02-08T02:09:36;20.65;;;15.02;;
52102;SDS011;38101;53.126;6.878;2023-02-08T02:12:11;23.38;;;15.02;;
52102;SDS011;38101;53.126;6.878;2023-02-08T02:14:38;21.30;;;14.27;;
52102;SDS011;38101;53.126;6.878;2023-02-08T02:17:04;21.38;;;15.25;;
52102;SDS011;38101;53.126;6.878;2023-02-08T02:32:58;21.48;;;14.93;;
52102;SDS011;38101;53.126;6.878;2023-02-08T02:41:05;19.77;;;14.98;;
52102;SDS011;38101;53.126;6.878;2023-02-08T02:44:14;21.58;;;14.65;;
52102;SDS011;38101;53.126;6.878;2023-02-08T02:47:30;21.08;;;14.73;;
52102;SDS011;38101;53.126;6.878;2023-02-08T02:49:54;22.17;;;14.63;;
52102;SDS011;38101;53.126;6.878;2023-02-08T02:52:30;23.15;;;14.85;;
52102;SDS011;38101;53.126;6.878;2023-02-08T02:55:03;23.10;;;15.30;;
52102;SDS011;38101;53.126;6.878;2023-02-08T02:57:37;20.15;;;14.63;;
52102;SDS011;38101;53.126;6.878;2023-02-08T03:00:09;21.55;;;15.13;;
52102;SDS011;38101;53.126;6.878;2023-02-08T03:02:36;22.65;;;15.60;;
52102;SDS011;38101;53.126;6.878;2023-02-08T03:05:02;21.30;;;15.63;;
52102;SDS011;38101;53.126;6.878;2023-02-08T03:10:25;21.10;;;14.80;;
52102;SDS011;38101;53.126;6.878;2023-02-08T03:27:04;25.10;;;16.45;;
52102;SDS011;38101;53.126;6.878;2023-02-08T03:32:31;22.67;;;16.70;;
52102;SDS011;38101;53.126;6.878;2023-02-08T03:37:30;24.02;;;16.77;;
52102;SDS011;38101;53.126;6.878;2023-02-08T03:40:09;23.17;;;16.00;;
52102;SDS011;38101;53.126;6.878;2023-02-08T03:42:47;22.65;;;16.30;;
52102;SDS011;38101;53.126;6.878;2023-02-08T03:45:21;25.10;;;17.40;;
52102;SDS011;38101;53.126;6.878;2023-02-08T03:48:03;23.58;;;16.25;;
52102;SDS011;38101;53.126;6.878;2023-02-08T03:50:33;24.27;;;16.95;;
52102;SDS011;38101;53.126;6.878;2023-02-08T03:53:02;26.65;;;17.02;;
52102;SDS011;38101;53.126;6.878;2023-02-08T03:55:30;24.85;;;17.23;;
52102;SDS011;38101;53.126;6.878;2023-02-08T03:58:09;22.10;;;15.93;;
52102;SDS011;38101;53.126;6.878;2023-02-08T04:00:39;23.65;;;16.70;;
52102;SDS011;38101;53.126;6.878;2023-02-08T04:03:16;25.02;;;16.88;;
52102;SDS011;38101;53.126;6.878;2023-02-08T04:05:48;25.50;;;16.48;;
52102;SDS011;38101;53.126;6.878;2023-02-08T04:08:14;28.25;;;17.48;;
52102;SDS011;38101;53.126;6.878;2023-02-08T04:10:40;25.05;;;17.27;;
52102;SDS011;38101;53.126;6.878;2023-02-08T04:13:06;25.50;;;17.75;;
52102;SDS011;38101;53.126;6.878;2023-02-08T04:15:32;26.15;;;16.98;;
52102;SDS011;38101;53.126;6.878;2023-02-08T04:17:58;24.08;;;16.83;;
52102;SDS011;38101;53.126;6.878;2023-02-08T04:20:24;25.10;;;16.92;;
52102;SDS011;38101;53.126;6.878;2023-02-08T04:22:49;26.48;;;17.60;;
52102;SDS011;38101;53.126;6.878;2023-02-08T04:25:15;25.05;;;16.63;;
52102;SDS011;38101;53.126;6.878;2023-02-08T04:27:41;25.27;;;17.00;;
52102;SDS011;38101;53.126;6.878;2023-02-08T04:30:07;25.02;;;17.08;;
52102;SDS011;38101;53.126;6.878;2023-02-08T04:32:33;24.85;;;17.27;;
52102;SDS011;38101;53.126;6.878;2023-02-08T04:34:59;27.88;;;18.23;;
52102;SDS011;38101;53.126;6.878;2023-02-08T04:37:24;27.33;;;18.55;;
52102;SDS011;38101;53.126;6.878;2023-02-08T04:39:50;25.95;;;18.20;;
52102;SDS011;38101;53.126;6.878;2023-02-08T04:42:16;26.08;;;17.52;;
52102;SDS011;38101;53.126;6.878;2023-02-08T04:44:42;27.17;;;18.70;;
52102;SDS011;38101;53.126;6.878;2023-02-08T04:47:08;30.00;;;18.02;;
52102;SDS011;38101;53.126;6.878;2023-02-08T04:49:34;26.90;;;18.25;;
52102;SDS011;38101;53.126;6.878;2023-02-08T04:51:59;27.15;;;18.55;;
52102;SDS011;38101;53.126;6.878;2023-02-08T04:54:25;25.38;;;17.55;;
52102;SDS011;38101;53.126;6.878;2023-02-08T04:56:51;26.88;;;18.83;;
52102;SDS011;38101;53.126;6.878;2023-02-08T04:59:17;26.20;;;18.05;;
52102;SDS011;38101;53.126;6.878;2023-02-08T05:01:43;29.90;;;19.40;;
52102;SDS011;38101;53.126;6.878;2023-02-08T05:04:09;29.35;;;18.98;;
52102;SDS011;38101;53.126;6.878;2023-02-08T05:06:35;28.70;;;19.10;;
52102;SDS011;38101;53.126;6.878;2023-02-08T05:09:01;25.15;;;18.20;;
52102;SDS011;38101;53.126;6.878;2023-02-08T05:11:27;27.58;;;17.48;;
52102;SDS011;38101;53.126;6.878;2023-02-08T05:13:53;25.42;;;17.60;;
52102;SDS011;38101;53.126;6.878;2023-02-08T05:16:19;24.75;;;18.08;;
52102;SDS011;38101;53.126;6.878;2023-02-08T05:18:45;24.92;;;18.15;;
52102;SDS011;38101;53.126;6.878;2023-02-08T05:21:11;24.40;;;17.05;;
52102;SDS011;38101;53.126;6.878;2023-02-08T05:23:36;23.50;;;16.27;;
52102;SDS011;38101;53.126;6.878;2023-02-08T05:26:06;23.08;;;17.13;;
52102;SDS011;38101;53.126;6.878;2023-02-08T05:28:33;25.17;;;16.60;;
52102;SDS011;38101;53.126;6.878;2023-02-08T05:31:06;25.83;;;17.23;;
52102;SDS011;38101;53.126;6.878;2023-02-08T05:33:35;22.73;;;16.08;;
52102;SDS011;38101;53.126;6.878;2023-02-08T05:36:01;28.73;;;17.60;;
52102;SDS011;38101;53.126;6.878;2023-02-08T05:38:27;26.70;;;17.83;;
52102;SDS011;38101;53.126;6.878;2023-02-08T05:40:53;26.38;;;17.30;;
52102;SDS011;38101;53.126;6.878;2023-02-08T05:43:18;25.55;;;16.65;;
52102;SDS011;38101;53.126;6.878;2023-02-08T05:45:44;27.38;;;17.85;;
52102;SDS011;38101;53.126;6.878;2023-02-08T05:48:10;25.88;;;18.13;;
52102;SDS011;38101;53.126;6.878;2023-02-08T05:50:36;28.05;;;18.10;;
52102;SDS011;38101;53.126;6.878;2023-02-08T05:53:01;24.98;;;18.15;;
52102;SDS011;38101;53.126;6.878;2023-02-08T05:55:27;28.52;;;18.73;;
52102;SDS011;38101;53.126;6.878;2023-02-08T05:57:54;29.08;;;19.08;;
52102;SDS011;38101;53.126;6.878;2023-02-08T06:00:19;27.55;;;18.15;;
52102;SDS011;38101;53.126;6.878;2023-02-08T06:02:45;27.10;;;18.60;;
52102;SDS011;38101;53.126;6.878;2023-02-08T06:05:11;27.88;;;18.10;;
52102;SDS011;38101;53.126;6.878;2023-02-08T06:07:37;28.05;;;19.27;;
52102;SDS011;38101;53.126;6.878;2023-02-08T06:10:03;30.60;;;19.08;;
52102;SDS011;38101;53.126;6.878;2023-02-08T06:12:29;25.10;;;17.55;;
52102;SDS011;38101;53.126;6.878;2023-02-08T06:14:55;28.48;;;19.88;;
52102;SDS011;38101;53.126;6.878;2023-02-08T06:17:21;30.02;;;20.63;;
52102;SDS011;38101;53.126;6.878;2023-02-08T06:19:46;31.55;;;20.10;;
52102;SDS011;38101;53.126;6.878;2023-02-08T06:22:12;28.90;;;19.85;;
52102;SDS011;38101;53.126;6.878;2023-02-08T06:24:38;29.88;;;19.58;;
52102;SDS011;38101;53.126;6.878;2023-02-08T06:27:04;28.05;;;18.67;;
52102;SDS011;38101;53.126;6.878;2023-02-08T06:29:30;29.77;;;19.77;;
52102;SDS011;38101;53.126;6.878;2023-02-08T06:31:56;28.85;;;18.40;;
52102;SDS011;38101;53.126;6.878;2023-02-08T06:34:21;28.90;;;18.17;;
52102;SDS011;38101;53.126;6.878;2023-02-08T06:36:47;31.23;;;19.42;;
52102;SDS011;38101;53.126;6.878;2023-02-08T06:39:13;31.77;;;19.98;;
52102;SDS011;38101;53.126;6.878;2023-02-08T06:41:39;29.92;;;19.65;;
52102;SDS011;38101;53.126;6.878;2023-02-08T06:44:05;30.45;;;19.70;;
52102;SDS011;38101;53.126;6.878;2023-02-08T06:46:32;31.35;;;19.20;;
52102;SDS011;38101;53.126;6.878;2023-02-08T06:48:58;31.17;;;19.63;;
52102;SDS011;38101;53.126;6.878;2023-02-08T06:51:24;29.10;;;18.92;;
52102;SDS011;38101;53.126;6.878;2023-02-08T06:53:51;26.92;;;18.42;;
52102;SDS011;38101;53.126;6.878;2023-02-08T06:56:16;30.45;;;18.45;;
52102;SDS011;38101;53.126;6.878;2023-02-08T06:58:42;32.55;;;19.65;;
52102;SDS011;38101;53.126;6.878;2023-02-08T07:01:14;32.38;;;19.23;;
52102;SDS011;38101;53.126;6.878;2023-02-08T07:03:40;30.52;;;20.17;;
52102;SDS011;38101;53.126;6.878;2023-02-08T07:06:13;32.38;;;19.00;;
52102;SDS011;38101;53.126;6.878;2023-02-08T07:08:40;29.08;;;19.15;;
52102;SDS011;38101;53.126;6.878;2023-02-08T07:11:09;31.85;;;20.10;;
52102;SDS011;38101;53.126;6.878;2023-02-08T07:13:37;29.13;;;18.92;;
52102;SDS011;38101;53.126;6.878;2023-02-08T07:16:04;32.63;;;19.80;;
52102;SDS011;38101;53.126;6.878;2023-02-08T07:18:31;30.77;;;19.35;;
52102;SDS011;38101;53.126;6.878;2023-02-08T07:20:57;29.42;;;18.17;;
52102;SDS011;38101;53.126;6.878;2023-02-08T07:23:23;29.02;;;19.52;;
52102;SDS011;38101;53.126;6.878;2023-02-08T07:26:00;30.25;;;19.50;;
52102;SDS011;38101;53.126;6.878;2023-02-08T07:28:28;28.10;;;18.98;;
52102;SDS011;38101;53.126;6.878;2023-02-08T07:30:54;26.65;;;19.23;;
52102;SDS011;38101;53.126;6.878;2023-02-08T07:33:20;29.58;;;19.92;;
52102;SDS011;38101;53.126;6.878;2023-02-08T07:35:46;30.60;;;19.88;;
52102;SDS011;38101;53.126;6.878;2023-02-08T07:38:12;30.08;;;19.63;;
52102;SDS011;38101;53.126;6.878;2023-02-08T07:40:38;30.80;;;20.70;;
52102;SDS011;38101;53.126;6.878;2023-02-08T07:43:04;29.42;;;19.20;;
52102;SDS011;38101;53.126;6.878;2023-02-08T07:45:30;35.22;;;20.98;;
52102;SDS011;38101;53.126;6.878;2023-02-08T07:47:56;30.85;;;20.45;;
52102;SDS011;38101;53.126;6.878;2023-02-08T07:50:22;34.35;;;21.05;;
52102;SDS011;38101;53.126;6.878;2023-02-08T07:52:47;34.75;;;21.25;;
52102;SDS011;38101;53.126;6.878;2023-02-08T07:55:13;35.40;;;21.83;;
52102;SDS011;38101;53.126;6.878;2023-02-08T07:57:47;37.03;;;21.85;;
52102;SDS011;38101;53.126;6.878;2023-02-08T08:00:14;34.75;;;21.15;;
52102;SDS011;38101;53.126;6.878;2023-02-08T08:02:42;35.47;;;22.05;;
52102;SDS011;38101;53.126;6.878;2023-02-08T08:05:08;36.88;;;21.70;;
52102;SDS011;38101;53.126;6.878;2023-02-08T08:07:35;32.95;;;20.17;;
52102;SDS011;38101;53.126;6.878;2023-02-08T08:10:01;32.45;;;19.42;;
52102;SDS011;38101;53.126;6.878;2023-02-08T08:12:28;32.50;;;20.42;;
52102;SDS011;38101;53.126;6.878;2023-02-08T08:14:53;34.35;;;19.38;;
52102;SDS011;38101;53.126;6.878;2023-02-08T08:17:19;32.92;;;20.65;;
52102;SDS011;38101;53.126;6.878;2023-02-08T08:19:45;33.38;;;20.08;;
52102;SDS011;38101;53.126;6.878;2023-02-08T08:22:11;31.02;;;19.70;;
52102;SDS011;38101;53.126;6.878;2023-02-08T08:24:37;32.33;;;21.63;;
52102;SDS011;38101;53.126;6.878;2023-02-08T08:27:04;34.53;;;19.85;;
52102;SDS011;38101;53.126;6.878;2023-02-08T08:29:30;30.92;;;18.98;;
52102;SDS011;38101;53.126;6.878;2023-02-08T08:31:58;31.23;;;19.73;;
52102;SDS011;38101;53.126;6.878;2023-02-08T08:34:24;30.52;;;20.48;;
52102;SDS011;38101;53.126;6.878;2023-02-08T08:37:03;31.50;;;19.27;;
52102;SDS011;38101;53.126;6.878;2023-02-08T08:39:28;33.45;;;20.33;;
52102;SDS011;38101;53.126;6.878;2023-02-08T08:41:58;31.55;;;19.95;;
52102;SDS011;38101;53.126;6.878;2023-02-08T08:44:24;32.03;;;20.15;;
52102;SDS011;38101;53.126;6.878;2023-02-08T08:46:53;33.42;;;20.60;;
52102;SDS011;38101;53.126;6.878;2023-02-08T08:49:20;32.72;;;20.05;;
52102;SDS011;38101;53.126;6.878;2023-02-08T08:51:47;33.55;;;21.05;;
52102;SDS011;38101;53.126;6.878;2023-02-08T08:54:13;32.50;;;20.23;;
52102;SDS011;38101;53.126;6.878;2023-02-08T08:56:38;31.80;;;21.15;;
52102;SDS011;38101;53.126;6.878;2023-02-08T08:59:04;31.40;;;20.95;;
52102;SDS011;38101;53.126;6.878;2023-02-08T09:01:30;32.28;;;20.50;;
52102;SDS011;38101;53.126;6.878;2023-02-08T09:03:56;30.65;;;19.98;;
52102;SDS011;38101;53.126;6.878;2023-02-08T09:06:22;31.08;;;19.40;;
52102;SDS011;38101;53.126;6.878;2023-02-08T09:08:47;31.92;;;19.85;;
52102;SDS011;38101;53.126;6.878;2023-02-08T09:11:14;30.58;;;19.85;;
52102;SDS011;38101;53.126;6.878;2023-02-08T09:13:40;30.45;;;19.83;;
52102;SDS011;38101;53.126;6.878;2023-02-08T09:16:08;29.83;;;19.98;;
52102;SDS011;38101;53.126;6.878;2023-02-08T09:18:37;32.75;;;20.90;;
52102;SDS011;38101;53.126;6.878;2023-02-08T09:21:06;29.52;;;19.23;;
52102;SDS011;38101;53.126;6.878;2023-02-08T09:23:33;32.65;;;20.10;;
52102;SDS011;38101;53.126;6.878;2023-02-08T09:26:07;33.67;;;20.33;;
52102;SDS011;38101;53.126;6.878;2023-02-08T09:28:35;31.83;;;20.48;;
52102;SDS011;38101;53.126;6.878;2023-02-08T09:31:08;33.95;;;21.05;;
52102;SDS011;38101;53.126;6.878;2023-02-08T09:33:36;33.50;;;19.98;;
52102;SDS011;38101;53.126;6.878;2023-02-08T09:36:02;31.65;;;19.25;;
52102;SDS011;38101;53.126;6.878;2023-02-08T09:38:28;31.98;;;21.38;;
52102;SDS011;38101;53.126;6.878;2023-02-08T09:46:10;36.25;;;19.90;;
52102;SDS011;38101;53.126;6.878;2023-02-08T09:48:41;34.28;;;20.48;;
52102;SDS011;38101;53.126;6.878;2023-02-08T09:51:18;32.90;;;19.75;;
52102;SDS011;38101;53.126;6.878;2023-02-08T09:54:00;29.08;;;19.50;;
52102;SDS011;38101;53.126;6.878;2023-02-08T09:56:35;32.30;;;20.35;;
52102;SDS011;38101;53.126;6.878;2023-02-08T09:59:04;30.73;;;20.23;;
52102;SDS011;38101;53.126;6.878;2023-02-08T10:01:36;30.05;;;19.60;;
52102;SDS011;38101;53.126;6.878;2023-02-08T10:04:14;30.58;;;20.13;;
52102;SDS011;38101;53.126;6.878;2023-02-08T10:06:54;33.78;;;19.83;;
52102;SDS011;38101;53.126;6.878;2023-02-08T10:09:21;30.15;;;18.55;;
52102;SDS011;38101;53.126;6.878;2023-02-08T10:17:51;34.10;;;21.23;;
52102;SDS011;38101;53.126;6.878;2023-02-08T10:26:12;27.95;;;18.00;;
52102;SDS011;38101;53.126;6.878;2023-02-08T10:29:04;26.52;;;16.92;;
52102;SDS011;38101;53.126;6.878;2023-02-08T10:32:23;27.95;;;17.58;;
52102;SDS011;38101;53.126;6.878;2023-02-08T10:35:12;27.92;;;18.52;;
52102;SDS011;38101;53.126;6.878;2023-02-08T10:37:42;28.95;;;18.35;;
52102;SDS011;38101;53.126;6.878;2023-02-08T10:42:50;26.58;;;16.63;;
52102;SDS011;38101;53.126;6.878;2023-02-08T10:48:37;26.20;;;16.83;;
52102;SDS011;38101;53.126;6.878;2023-02-08T10:51:28;28.90;;;16.75;;
52102;SDS011;38101;53.126;6.878;2023-02-08T10:53:54;27.13;;;16.60;;
52102;SDS011;38101;53.126;6.878;2023-02-08T10:59:13;25.23;;;16.55;;
52102;SDS011;38101;53.126;6.878;2023-02-08T11:01:46;24.75;;;17.02;;
52102;SDS011;38101;53.126;6.878;2023-02-08T11:04:13;25.33;;;17.33;;
52102;SDS011;38101;53.126;6.878;2023-02-08T11:06:40;24.75;;;16.65;;
52102;SDS011;38101;53.126;6.878;2023-02-08T11:09:21;29.67;;;18.15;;
52102;SDS011;38101;53.126;6.878;2023-02-08T11:11:51;25.05;;;16.75;;
52102;SDS011;38101;53.126;6.878;2023-02-08T11:16:50;25.30;;;16.40;;
52102;SDS011;38101;53.126;6.878;2023-02-08T11:19:33;22.98;;;15.07;;
52102;SDS011;38101;53.126;6.878;2023-02-08T11:22:14;23.48;;;16.15;;
52102;SDS011;38101;53.126;6.878;2023-02-08T11:24:41;25.95;;;16.00;;
52102;SDS011;38101;53.126;6.878;2023-02-08T11:27:33;21.63;;;14.63;;
52102;SDS011;38101;53.126;6.878;2023-02-08T11:32:33;19.95;;;14.10;;
52102;SDS011;38101;53.126;6.878;2023-02-08T11:35:20;19.85;;;13.93;;
52102;SDS011;38101;53.126;6.878;2023-02-08T11:37:49;18.05;;;12.60;;
52102;SDS011;38101;53.126;6.878;2023-02-08T11:40:20;19.98;;;13.18;;
52102;SDS011;38101;53.126;6.878;2023-02-08T11:42:50;18.83;;;12.38;;
52102;SDS011;38101;53.126;6.878;2023-02-08T11:45:18;19.92;;;12.68;;
52102;SDS011;38101;53.126;6.878;2023-02-08T11:47:47;21.38;;;12.95;;
52102;SDS011;38101;53.126;6.878;2023-02-08T11:53:09;18.65;;;12.40;;
52102;SDS011;38101;53.126;6.878;2023-02-08T11:55:59;17.73;;;12.40;;
52102;SDS011;38101;53.126;6.878;2023-02-08T11:58:39;20.83;;;14.35;;
52102;SDS011;38101;53.126;6.878;2023-02-08T12:01:16;22.60;;;14.82;;
52102;SDS011;38101;53.126;6.878;2023-02-08T12:03:44;20.45;;;13.85;;
52102;SDS011;38101;53.126;6.878;2023-02-08T12:09:02;17.60;;;11.30;;
52102;SDS011;38101;53.126;6.878;2023-02-08T12:11:47;18.35;;;12.15;;
52102;SDS011;38101;53.126;6.878;2023-02-08T12:14:45;15.35;;;11.05;;
52102;SDS011;38101;53.126;6.878;2023-02-08T12:42:32;13.57;;;9.73;;
52102;SDS011;38101;53.126;6.878;2023-02-08T12:48:43;13.85;;;9.90;;
52102;SDS011;38101;53.126;6.878;2023-02-08T12:51:04;14.40;;;10.30;;
52102;SDS011;38101;53.126;6.878;2023-02-08T12:53:42;14.43;;;9.88;;
52102;SDS011;38101;53.126;6.878;2023-02-08T12:56:14;13.07;;;9.98;;
52102;SDS011;38101;53.126;6.878;2023-02-08T12:58:46;15.00;;;9.75;;
52102;SDS011;38101;53.126;6.878;2023-02-08T13:01:18;13.27;;;9.77;;
52102;SDS011;38101;53.126;6.878;2023-02-08T13:04:05;12.30;;;9.00;;
52102;SDS011;38101;53.126;6.878;2023-02-08T13:06:42;12.07;;;8.15;;
52102;SDS011;38101;53.126;6.878;2023-02-08T13:09:18;14.65;;;8.52;;
52102;SDS011;38101;53.126;6.878;2023-02-08T13:12:06;13.27;;;9.07;;
52102;SDS011;38101;53.126;6.878;2023-02-08T13:14:41;11.35;;;7.97;;
52102;SDS011;38101;53.126;6.878;2023-02-08T13:17:19;11.85;;;8.63;;
52102;SDS011;38101;53.126;6.878;2023-02-08T13:22:14;11.77;;;8.35;;
52102;SDS011;38101;53.126;6.878;2023-02-08T13:24:42;15.80;;;10.25;;
52102;SDS011;38101;53.126;6.878;2023-02-08T13:27:14;11.32;;;8.38;;
52102;SDS011;38101;53.126;6.878;2023-02-08T13:29:41;12.15;;;8.70;;
52102;SDS011;38101;53.126;6.878;2023-02-08T13:32:22;12.57;;;9.23;;
52102;SDS011;38101;53.126;6.878;2023-02-08T13:35:04;12.88;;;8.32;;
52102;SDS011;38101;53.126;6.878;2023-02-08T13:40:43;10.77;;;8.13;;
52102;SDS011;38101;53.126;6.878;2023-02-08T13:45:54;11.48;;;8.10;;
52102;SDS011;38101;53.126;6.878;2023-02-08T13:48:23;10.50;;;8.52;;
52102;SDS011;38101;53.126;6.878;2023-02-08T13:50:52;11.77;;;8.32;;
52102;SDS011;38101;53.126;6.878;2023-02-08T13:56:02;10.90;;;7.85;;
52102;SDS011;38101;53.126;6.878;2023-02-08T14:01:21;10.73;;;7.60;;
52102;SDS011;38101;53.126;6.878;2023-02-08T14:06:33;11.52;;;8.25;;
52102;SDS011;38101;53.126;6.878;2023-02-08T14:10:00;9.82;;;7.30;;
52102;SDS011;38101;53.126;6.878;2023-02-08T14:17:42;11.63;;;8.55;;
52102;SDS011;38101;53.126;6.878;2023-02-08T14:22:54;11.07;;;7.35;;
52102;SDS011;38101;53.126;6.878;2023-02-08T14:25:26;10.30;;;7.28;;
52102;SDS011;38101;53.126;6.878;2023-02-08T14:35:27;10.48;;;7.35;;
52102;SDS011;38101;53.126;6.878;2023-02-08T14:40:57;11.65;;;7.32;;
52102;SDS011;38101;53.126;6.878;2023-02-08T14:49:02;9.27;;;6.60;;
52102;SDS011;38101;53.126;6.878;2023-02-08T14:51:57;11.85;;;7.30;;
52102;SDS011;38101;53.126;6.878;2023-02-08T14:54:31;10.20;;;7.28;;
52102;SDS011;38101;53.126;6.878;2023-02-08T14:57:18;9.30;;;6.28;;
52102;SDS011;38101;53.126;6.878;2023-02-08T14:59:49;9.68;;;7.10;;
52102;SDS011;38101;53.126;6.878;2023-02-08T15:02:19;11.32;;;6.93;;
52102;SDS011;38101;53.126;6.878;2023-02-08T15:04:47;9.95;;;7.03;;
52102;SDS011;38101;53.126;6.878;2023-02-08T15:10:09;9.40;;;6.65;;
52102;SDS011;38101;53.126;6.878;2023-02-08T15:12:38;9.73;;;6.75;;
52102;SDS011;38101;53.126;6.878;2023-02-08T15:15:05;11.35;;;6.70;;
52102;SDS011;38101;53.126;6.878;2023-02-08T15:17:48;8.68;;;6.47;;
52102;SDS011;38101;53.126;6.878;2023-02-08T15:20:20;11.38;;;7.45;;
52102;SDS011;38101;53.126;6.878;2023-02-08T15:22:56;9.38;;;6.72;;
52102;SDS011;38101;53.126;6.878;2023-02-08T15:25:42;10.52;;;6.72;;
52102;SDS011;38101;53.126;6.878;2023-02-08T15:28:21;10.68;;;6.80;;
52102;SDS011;38101;53.126;6.878;2023-02-08T15:30:53;9.25;;;6.55;;
52102;SDS011;38101;53.126;6.878;2023-02-08T15:33:23;9.52;;;6.63;;
52102;SDS011;38101;53.126;6.878;2023-02-08T15:36:00;8.65;;;6.13;;
52102;SDS011;38101;53.126;6.878;2023-02-08T15:38:29;8.98;;;6.30;;
52102;SDS011;38101;53.126;6.878;2023-02-08T15:41:05;8.02;;;6.32;;
52102;SDS011;38101;53.126;6.878;2023-02-08T15:43:34;8.25;;;6.10;;
52102;SDS011;38101;53.126;6.878;2023-02-08T15:46:02;8.95;;;6.38;;
52102;SDS011;38101;53.126;6.878;2023-02-08T15:48:41;8.73;;;5.95;;
52102;SDS011;38101;53.126;6.878;2023-02-08T15:51:10;9.77;;;6.07;;
52102;SDS011;38101;53.126;6.878;2023-02-08T15:53:39;9.82;;;6.32;;
52102;SDS011;38101;53.126;6.878;2023-02-08T15:56:08;9.65;;;6.47;;
52102;SDS011;38101;53.126;6.878;2023-02-08T15:58:40;8.35;;;6.35;;
52102;SDS011;38101;53.126;6.878;2023-02-08T16:01:16;9.47;;;6.30;;
52102;SDS011;38101;53.126;6.878;2023-02-08T16:03:51;9.13;;;7.13;;
52102;SDS011;38101;53.126;6.878;2023-02-08T16:06:22;10.40;;;8.85;;
52102;SDS011;38101;53.126;6.878;2023-02-08T16:08:50;10.98;;;7.97;;
52102;SDS011;38101;53.126;6.878;2023-02-08T16:11:21;11.00;;;9.57;;
52102;SDS011;38101;53.126;6.878;2023-02-08T16:13:51;13.43;;;9.57;;
52102;SDS011;38101;53.126;6.878;2023-02-08T16:18:54;14.85;;;12.13;;
52102;SDS011;38101;53.126;6.878;2023-02-08T16:23:51;17.08;;;13.77;;
52102;SDS011;38101;53.126;6.878;2023-02-08T16:26:20;22.83;;;16.48;;
52102;SDS011;38101;53.126;6.878;2023-02-08T16:28:53;21.48;;;15.48;;
52102;SDS011;38101;53.126;6.878;2023-02-08T16:31:30;18.52;;;14.18;;
52102;SDS011;38101;53.126;6.878;2023-02-08T16:34:06;25.52;;;19.25;;
52102;SDS011;38101;53.126;6.878;2023-02-08T16:36:40;38.80;;;28.70;;
52102;SDS011;38101;53.126;6.878;2023-02-08T16:44:38;13.65;;;11.73;;
52102;SDS011;38101;53.126;6.878;2023-02-08T16:47:35;11.07;;;8.85;;
52102;SDS011;38101;53.126;6.878;2023-02-08T16:50:04;12.20;;;8.38;;
52102;SDS011;38101;53.126;6.878;2023-02-08T16:52:30;9.57;;;8.07;;
52102;SDS011;38101;53.126;6.878;2023-02-08T16:54:56;11.98;;;7.97;;
52102;SDS011;38101;53.126;6.878;2023-02-08T16:57:23;12.57;;;7.88;;
52102;SDS011;38101;53.126;6.878;2023-02-08T16:59:49;12.02;;;9.43;;
52102;SDS011;38101;53.126;6.878;2023-02-08T17:02:16;12.50;;;9.35;;
52102;SDS011;38101;53.126;6.878;2023-02-08T17:04:41;11.35;;;8.77;;
52102;SDS011;38101;53.126;6.878;2023-02-08T17:07:15;11.27;;;7.90;;
52102;SDS011;38101;53.126;6.878;2023-02-08T17:09:42;11.05;;;8.00;;
52102;SDS011;38101;53.126;6.878;2023-02-08T17:12:09;10.85;;;7.78;;
52102;SDS011;38101;53.126;6.878;2023-02-08T17:14:35;11.13;;;8.15;;
52102;SDS011;38101;53.126;6.878;2023-02-08T17:17:01;10.45;;;7.55;;
52102;SDS011;38101;53.126;6.878;2023-02-08T17:19:27;10.82;;;7.95;;
52102;SDS011;38101;53.126;6.878;2023-02-08T17:21:53;10.35;;;7.50;;
52102;SDS011;38101;53.126;6.878;2023-02-08T17:24:19;9.00;;;6.97;;